createdAt,value
2022-11-05T00:00:32.623Z,99038.84
2022-11-05T00:01:53.796Z,99054.59
2022-11-05T00:03:14.489Z,99047.69
2022-11-05T00:04:35.498Z,99048.28
2022-11-05T00:05:55.993Z,99058.69
2022-11-05T00:07:25.593Z,99060.81
2022-11-05T00:08:46.001Z,99055.94
2022-11-05T00:09:49.120Z,99059.03
2022-11-05T00:10:51.338Z,99056.84
2022-11-05T00:12:11.796Z,99057.38
2022-11-05T00:13:34.044Z,99051.91
2022-11-05T00:14:54.467Z,99056.09
2022-11-05T00:16:14.932Z,99058.44
2022-11-05T00:17:17.089Z,99061.25
2022-11-05T00:18:19.347Z,99062.00
2022-11-05T00:19:21.535Z,99056.34
2022-11-05T00:20:23.667Z,99058.56
2022-11-05T00:21:44.747Z,99053.19
2022-11-05T00:23:05.722Z,99054.53
2022-11-05T00:24:26.748Z,99059.28
2022-11-05T00:25:30.264Z,99069.28
2022-11-05T00:26:32.501Z,99067.41
2022-11-05T00:27:34.672Z,99063.97
2022-11-05T00:28:43.794Z,99066.44
2022-11-05T00:29:46.447Z,99068.94
2022-11-05T00:30:49.038Z,99061.69
2022-11-05T00:31:51.221Z,99068.69
2022-11-05T00:32:54.007Z,99075.03
2022-11-05T00:33:56.175Z,99067.28
2022-11-05T00:34:58.460Z,99068.41
2022-11-05T00:36:02.735Z,99065.78
2022-11-05T00:37:04.926Z,99073.53
2022-11-05T00:38:07.118Z,99072.66
2022-11-05T00:39:09.378Z,99082.50
2022-11-05T00:40:13.724Z,99077.44
2022-11-05T00:41:15.880Z,99077.13
2022-11-05T00:42:36.401Z,99082.97
2022-11-05T00:43:56.994Z,99086.03
2022-11-05T00:45:01.989Z,99084.78
2022-11-05T00:46:04.397Z,99091.19
2022-11-05T00:47:25.528Z,99083.50
2022-11-05T00:48:46.090Z,99091.75
2022-11-05T00:49:48.286Z,99093.31
2022-11-05T00:50:50.468Z,99091.00
2022-11-05T00:52:12.604Z,99084.25
2022-11-05T00:53:14.869Z,99094.16
2022-11-05T00:54:17.039Z,99099.09
2022-11-05T00:55:19.234Z,99094.22
2022-11-05T00:56:21.441Z,99094.69
2022-11-05T00:57:23.600Z,99089.97
2022-11-05T00:58:27.253Z,99096.59
2022-11-05T00:59:29.434Z,99095.84
2022-11-05T01:00:33.516Z,99096.59
2022-11-05T01:01:35.819Z,99100.19
2022-11-05T01:02:38.159Z,99100.78
2022-11-05T01:03:40.742Z,99093.84
2022-11-05T01:04:42.921Z,99098.78
2022-11-05T01:05:47.812Z,99096.09
2022-11-05T01:06:49.996Z,99103.16
2022-11-05T01:07:53.266Z,99096.59
2022-11-05T01:08:55.848Z,99100.31
2022-11-05T01:09:57.988Z,99109.22
2022-11-05T01:11:00.225Z,99095.13
2022-11-05T01:12:02.384Z,99114.81
2022-11-05T01:13:08.777Z,99100.72
2022-11-05T01:14:15.997Z,99105.69
2022-11-05T01:15:19.344Z,99098.31
2022-11-05T01:16:21.514Z,99101.97
2022-11-05T01:17:23.686Z,99104.53
2022-11-05T01:18:25.884Z,99097.34
2022-11-05T01:19:29.257Z,99101.63
2022-11-05T01:20:31.640Z,99106.56
2022-11-05T01:21:34.008Z,99095.78
2022-11-05T01:22:36.244Z,99106.72
2022-11-05T01:23:38.510Z,99098.56
2022-11-05T01:24:40.816Z,99098.06
2022-11-05T01:25:43.556Z,99107.25
2022-11-05T01:26:45.823Z,99104.34
2022-11-05T01:27:47.996Z,99103.88
2022-11-05T01:28:52.052Z,99110.53
2022-11-05T01:29:54.286Z,99102.56
2022-11-05T01:30:56.979Z,99109.88
2022-11-05T01:31:59.107Z,99102.28
2022-11-05T01:33:03.221Z,99116.63
2022-11-05T01:34:05.404Z,99111.72
2022-11-05T01:35:10.700Z,99120.84
2022-11-05T01:36:13.083Z,99112.63
2022-11-05T01:37:15.296Z,99120.13
2022-11-05T01:38:18.336Z,99111.97
2022-11-05T01:39:20.502Z,99123.28
2022-11-05T01:40:23.971Z,99124.13
2022-11-05T01:41:26.150Z,99119.38
2022-11-05T01:42:28.715Z,99121.78
2022-11-05T01:43:47.814Z,99118.50
2022-11-05T01:44:57.392Z,99118.78
2022-11-05T01:45:59.675Z,99115.94
2022-11-05T01:47:01.947Z,99119.94
2022-11-05T01:48:35.027Z,99124.06
2022-11-05T01:49:37.444Z,99115.16
2022-11-05T01:50:57.937Z,99120.19
2022-11-05T01:52:04.620Z,99125.81
2022-11-05T01:53:29.702Z,99121.66
2022-11-05T01:54:33.844Z,99123.59
2022-11-05T01:55:41.616Z,99128.09
2022-11-05T01:56:49.894Z,99124.94
2022-11-05T01:57:56.065Z,99127.06
2022-11-05T01:59:05.464Z,99129.31
2022-11-05T02:00:08.138Z,99126.03
2022-11-05T02:01:15.892Z,99128.28
2022-11-05T02:02:18.864Z,99119.63
2022-11-05T02:03:21.342Z,99131.94
2022-11-05T02:04:30.700Z,99131.22
2022-11-05T02:05:33.967Z,99135.97
2022-11-05T02:06:39.117Z,99131.50
2022-11-05T02:07:45.307Z,99129.78
2022-11-05T02:09:00.474Z,99131.75
2022-11-05T02:10:08.792Z,99131.13
2022-11-05T02:11:14.099Z,99135.13
2022-11-05T02:12:16.321Z,99142.09
2022-11-05T02:13:18.573Z,99135.13
2022-11-05T02:14:20.873Z,99137.47
2022-11-05T02:16:08.594Z,99131.84
2022-11-05T02:17:26.624Z,99133.69
2022-11-05T02:18:48.902Z,99137.81
2022-11-05T02:19:59.944Z,99131.97
2022-11-05T02:21:26.124Z,99141.16
2022-11-05T02:22:50.493Z,99132.47
2022-11-05T02:24:29.493Z,99136.28
2022-11-05T02:25:52.648Z,99133.00
2022-11-05T02:27:00.688Z,99142.47
2022-11-05T02:28:14.823Z,99144.91
2022-11-05T02:29:45.521Z,99150.88
2022-11-05T02:30:52.040Z,99144.44
2022-11-05T02:32:14.536Z,99147.84
2022-11-05T02:33:34.882Z,99141.94
2022-11-05T02:35:01.201Z,99148.50
2022-11-05T02:36:12.165Z,99150.50
2022-11-05T02:37:17.079Z,99146.56
2022-11-05T02:38:55.178Z,99148.16
2022-11-05T02:40:12.517Z,99142.25
2022-11-05T02:41:29.608Z,99134.44
2022-11-05T02:42:48.806Z,99136.75
2022-11-05T02:44:45.053Z,99145.91
2022-11-05T02:45:55.969Z,99145.97
2022-11-05T02:46:58.158Z,99149.31
2022-11-05T02:48:31.049Z,99143.16
2022-11-05T02:50:01.339Z,99152.25
2022-11-05T02:51:38.304Z,99152.34
2022-11-05T02:52:48.124Z,99148.47
2022-11-05T02:54:08.765Z,99138.75
2022-11-05T02:55:25.632Z,99146.28
2022-11-05T02:56:32.278Z,99154.84
2022-11-05T02:57:36.618Z,99139.91
2022-11-05T02:58:38.792Z,99145.41
2022-11-05T02:59:41.026Z,99149.56
2022-11-05T03:00:57.455Z,99147.75
2022-11-05T03:02:01.712Z,99146.81
2022-11-05T03:03:05.564Z,99142.03
2022-11-05T03:04:11.473Z,99147.19
2022-11-05T03:05:13.884Z,99142.94
2022-11-05T03:06:43.223Z,99145.69
2022-11-05T03:07:54.993Z,99150.16
2022-11-05T03:09:29.527Z,99147.38
2022-11-05T03:10:53.660Z,99154.69
2022-11-05T03:12:49.928Z,99160.91
2022-11-05T03:14:44.548Z,99156.56
2022-11-05T03:16:06.022Z,99168.56
2022-11-05T03:17:20.878Z,99147.31
2022-11-05T03:18:26.850Z,99157.53
2022-11-05T03:19:37.429Z,99157.66
2022-11-05T03:21:11.176Z,99160.59
2022-11-05T03:22:29.295Z,99157.31
2022-11-05T03:23:58.557Z,99158.94
2022-11-05T03:25:04.938Z,99161.50
2022-11-05T03:26:12.512Z,99169.00
2022-11-05T03:27:19.800Z,99152.47
2022-11-05T03:28:25.921Z,99164.34
2022-11-05T03:29:38.107Z,99172.97
2022-11-05T03:30:42.292Z,99172.00
2022-11-05T03:31:47.570Z,99171.84
2022-11-05T03:33:00.394Z,99172.81
2022-11-05T03:34:05.997Z,99177.53
2022-11-05T03:35:16.885Z,99172.19
2022-11-05T03:36:30.589Z,99172.72
2022-11-05T03:37:37.420Z,99172.06
2022-11-05T03:38:44.352Z,99174.06
2022-11-05T03:39:50.764Z,99172.59
2022-11-05T03:40:55.344Z,99174.84
2022-11-05T03:41:58.953Z,99183.25
2022-11-05T03:43:04.074Z,99186.31
2022-11-05T03:44:08.938Z,99181.41
2022-11-05T03:45:21.471Z,99178.03
2022-11-05T03:46:32.106Z,99179.59
2022-11-05T03:47:38.309Z,99175.13
2022-11-05T03:48:47.248Z,99176.47
2022-11-05T03:50:12.831Z,99188.25
2022-11-05T03:51:37.115Z,99189.78
2022-11-05T03:52:53.251Z,99192.88
2022-11-05T03:53:59.077Z,99194.59
2022-11-05T03:55:01.396Z,99193.63
2022-11-05T03:56:08.530Z,99193.66
2022-11-05T03:57:22.236Z,99201.53
2022-11-05T03:58:25.824Z,99198.25
2022-11-05T03:59:30.515Z,99204.75
2022-11-05T04:00:33.322Z,99207.53
2022-11-05T04:01:37.716Z,99201.59
2022-11-05T04:02:40.154Z,99204.28
2022-11-05T04:03:42.395Z,99206.84
2022-11-05T04:04:44.711Z,99219.41
2022-11-05T04:06:07.432Z,99213.75
2022-11-05T04:07:29.365Z,99215.25
2022-11-05T04:08:57.362Z,99217.88
2022-11-05T04:10:18.433Z,99214.88
2022-11-05T04:11:38.949Z,99212.41
2022-11-05T04:12:59.616Z,99222.97
2022-11-05T04:14:01.772Z,99219.84
2022-11-05T04:15:04.045Z,99223.34
2022-11-05T04:16:25.065Z,99223.41
2022-11-05T04:17:27.197Z,99226.13
2022-11-05T04:18:29.399Z,99219.31
2022-11-05T04:19:50.940Z,99221.44
2022-11-05T04:21:11.497Z,99220.72
2022-11-05T04:22:32.461Z,99221.44
2022-11-05T04:23:53.495Z,99227.59
2022-11-05T04:24:55.660Z,99231.06
2022-11-05T04:25:57.841Z,99233.00
2022-11-05T04:27:00.013Z,99234.38
2022-11-05T04:28:02.164Z,99230.78
2022-11-05T04:29:23.115Z,99227.22
2022-11-05T04:30:25.434Z,99227.66
2022-11-05T04:31:27.596Z,99229.53
2022-11-05T04:32:29.731Z,99239.31
2022-11-05T04:33:31.893Z,99236.28
2022-11-05T04:34:34.092Z,99246.66
2022-11-05T04:35:37.952Z,99236.78
2022-11-05T04:36:40.148Z,99228.63
2022-11-05T04:37:42.385Z,99239.84
2022-11-05T04:38:44.589Z,99231.41
2022-11-05T04:39:46.737Z,99244.91
2022-11-05T04:40:48.953Z,99237.69
2022-11-05T04:41:51.300Z,99246.28
2022-11-05T04:42:55.349Z,99238.03
2022-11-05T04:43:57.550Z,99237.78
2022-11-05T04:44:59.707Z,99240.34
2022-11-05T04:46:01.896Z,99232.22
2022-11-05T04:47:04.197Z,99238.50
2022-11-05T04:48:06.495Z,99239.41
2022-11-05T04:49:08.706Z,99237.53
2022-11-05T04:50:12.119Z,99248.34
2022-11-05T04:51:14.356Z,99247.50
2022-11-05T04:52:17.849Z,99238.91
2022-11-05T04:53:20.060Z,99247.41
2022-11-05T04:54:22.224Z,99247.97
2022-11-05T04:55:25.579Z,99249.38
2022-11-05T04:56:27.759Z,99249.38
2022-11-05T04:57:32.627Z,99255.69
2022-11-05T04:58:39.516Z,99255.31
2022-11-05T04:59:41.745Z,99255.50
2022-11-05T05:00:43.995Z,99256.16
2022-11-05T05:01:46.372Z,99252.41
2022-11-05T05:02:49.208Z,99254.84
2022-11-05T05:03:52.505Z,99248.50
2022-11-05T05:04:54.711Z,99250.28
2022-11-05T05:06:03.529Z,99250.59
2022-11-05T05:07:06.268Z,99244.22
2022-11-05T05:08:08.920Z,99258.13
2022-11-05T05:09:11.126Z,99249.28
2022-11-05T05:10:13.302Z,99255.25
2022-11-05T05:11:17.642Z,99253.34
2022-11-05T05:12:19.869Z,99258.81
2022-11-05T05:13:22.039Z,99259.72
2022-11-05T05:14:24.268Z,99263.44
2022-11-05T05:15:26.425Z,99265.88
2022-11-05T05:16:28.639Z,99266.75
2022-11-05T05:17:30.816Z,99269.38
2022-11-05T05:18:33.371Z,99266.75
2022-11-05T05:19:55.549Z,99279.03
2022-11-05T05:21:16.980Z,99277.22
2022-11-05T05:22:19.130Z,99277.81
2022-11-05T05:23:21.335Z,99281.06
2022-11-05T05:24:24.957Z,99283.84
2022-11-05T05:25:27.220Z,99276.78
2022-11-05T05:26:29.444Z,99286.16
2022-11-05T05:27:31.852Z,99289.75
2022-11-05T05:28:34.108Z,99291.34
2022-11-05T05:29:36.295Z,99286.00
2022-11-05T05:30:38.504Z,99283.19
2022-11-05T05:31:41.228Z,99294.38
2022-11-05T05:32:43.749Z,99302.75
2022-11-05T05:33:46.795Z,99295.88
2022-11-05T05:34:49.118Z,99297.63
2022-11-05T05:35:51.354Z,99309.84
2022-11-05T05:36:53.599Z,99304.59
2022-11-05T05:37:56.608Z,99310.88
2022-11-05T05:38:58.790Z,99311.31
2022-11-05T05:40:00.955Z,99309.28
2022-11-05T05:41:03.362Z,99311.44
2022-11-05T05:42:05.584Z,99311.19
2022-11-05T05:43:07.880Z,99311.81
2022-11-05T05:44:10.210Z,99309.19
2022-11-05T05:45:12.787Z,99315.25
2022-11-05T05:46:16.914Z,99317.31
2022-11-05T05:47:19.136Z,99311.66
2022-11-05T05:48:21.315Z,99313.03
2022-11-05T05:49:23.497Z,99317.06
2022-11-05T05:50:25.750Z,99314.16
2022-11-05T05:51:28.004Z,99319.34
2022-11-05T05:52:30.218Z,99308.88
2022-11-05T05:53:32.733Z,99320.44
2022-11-05T05:54:39.747Z,99322.13
2022-11-05T05:55:44.643Z,99321.47
2022-11-05T05:56:46.878Z,99324.66
2022-11-05T05:57:49.538Z,99332.56
2022-11-05T05:58:52.222Z,99323.69
2022-11-05T05:59:54.640Z,99327.03
2022-11-05T06:01:01.170Z,99330.91
2022-11-05T06:02:03.672Z,99335.88
2022-11-05T06:03:06.563Z,99333.94
2022-11-05T06:04:10.285Z,99336.38
2022-11-05T06:05:12.461Z,99342.03
2022-11-05T06:06:15.727Z,99344.66
2022-11-05T06:07:17.965Z,99350.97
2022-11-05T06:08:20.138Z,99346.81
2022-11-05T06:09:22.319Z,99345.22
2022-11-05T06:10:25.579Z,99344.13
2022-11-05T06:11:27.920Z,99358.06
2022-11-05T06:12:30.129Z,99356.47
2022-11-05T06:13:32.654Z,99352.28
2022-11-05T06:14:34.897Z,99352.97
2022-11-05T06:15:37.059Z,99356.63
2022-11-05T06:16:39.994Z,99356.03
2022-11-05T06:17:45.132Z,99354.72
2022-11-05T06:18:47.342Z,99359.91
2022-11-05T06:19:49.599Z,99361.09
2022-11-05T06:20:51.740Z,99362.16
2022-11-05T06:21:53.936Z,99366.50
2022-11-05T06:22:57.372Z,99370.84
2022-11-05T06:24:00.955Z,99369.63
2022-11-05T06:25:03.297Z,99368.94
2022-11-05T06:26:07.625Z,99370.47
2022-11-05T06:27:10.076Z,99381.72
2022-11-05T06:28:12.285Z,99372.69
2022-11-05T06:29:14.558Z,99376.22
2022-11-05T06:30:17.552Z,99370.41
2022-11-05T06:31:19.981Z,99383.50
2022-11-05T06:32:22.837Z,99380.75
2022-11-05T06:33:25.204Z,99375.56
2022-11-05T06:34:27.354Z,99384.19
2022-11-05T06:35:29.830Z,99384.09
2022-11-05T06:36:32.082Z,99383.41
2022-11-05T06:37:34.474Z,99391.22
2022-11-05T06:38:36.785Z,99393.75
2022-11-05T06:39:38.940Z,99393.91
2022-11-05T06:40:41.239Z,99392.53
2022-11-05T06:42:16.614Z,99396.88
2022-11-05T06:43:06.743Z,99397.88
2022-11-05T06:44:08.917Z,99404.91
2022-11-05T06:45:11.070Z,99406.34
2022-11-05T06:46:13.318Z,99411.94
2022-11-05T06:47:15.674Z,99405.00
2022-11-05T06:48:18.053Z,99416.34
2022-11-05T06:49:24.394Z,99417.47
2022-11-05T06:50:28.030Z,99416.78
2022-11-05T06:51:30.351Z,99414.44
2022-11-05T06:52:34.881Z,99419.69
2022-11-05T06:53:40.604Z,99421.91
2022-11-05T06:54:43.808Z,99426.06
2022-11-05T06:55:47.788Z,99431.41
2022-11-05T06:56:49.953Z,99433.06
2022-11-05T06:57:52.479Z,99436.50
2022-11-05T06:58:54.679Z,99428.31
2022-11-05T07:00:01.382Z,99438.47
2022-11-05T07:01:09.895Z,99440.66
2022-11-05T07:02:13.781Z,99455.09
2022-11-05T07:03:16.124Z,99452.53
2022-11-05T07:04:18.297Z,99448.72
2022-11-05T07:05:20.524Z,99452.47
2022-11-05T07:06:22.678Z,99447.84
2022-11-05T07:11:07.600Z,99469.41
2022-11-05T07:12:10.211Z,99462.91
2022-11-05T07:13:12.811Z,99464.13
2022-11-05T07:14:15.207Z,99467.03
2022-11-05T07:15:17.445Z,99464.81
2022-11-05T07:16:19.757Z,99460.41
2022-11-05T07:17:22.442Z,99471.53
2022-11-05T07:18:24.855Z,99468.75
2022-11-05T07:19:27.057Z,99464.53
2022-11-05T07:20:33.522Z,99466.97
2022-11-05T07:21:36.341Z,99465.34
2022-11-05T07:22:38.535Z,99472.75
2022-11-05T07:23:40.711Z,99474.25
2022-11-05T07:24:47.053Z,99475.81
2022-11-05T07:25:49.235Z,99479.34
2022-11-05T07:26:51.461Z,99481.94
2022-11-05T07:27:53.666Z,99477.31
2022-11-05T07:28:55.906Z,99480.44
2022-11-05T07:29:58.166Z,99481.38
2022-11-05T07:31:00.587Z,99487.13
2022-11-05T07:32:02.766Z,99484.41
2022-11-05T07:33:04.963Z,99485.97
2022-11-05T07:34:07.204Z,99473.63
2022-11-05T07:35:10.064Z,99484.75
2022-11-05T07:36:12.562Z,99493.50
2022-11-05T07:37:16.641Z,99491.94
2022-11-05T07:38:19.292Z,99483.41
2022-11-05T07:39:21.607Z,99484.59
2022-11-05T07:40:26.912Z,99493.31
2022-11-05T07:41:29.276Z,99498.66
2022-11-05T07:42:31.493Z,99496.41
2022-11-05T07:43:33.655Z,99500.97
2022-11-05T07:44:35.875Z,99501.69
2022-11-05T07:45:38.087Z,99498.66
2022-11-05T07:46:43.555Z,99507.63
2022-11-05T07:47:48.350Z,99506.47
2022-11-05T07:48:50.560Z,99501.56
2022-11-05T07:49:52.773Z,99508.69
2022-11-05T07:50:54.979Z,99509.38
2022-11-05T07:51:57.110Z,99507.50
2022-11-05T07:53:07.105Z,99505.78
2022-11-05T07:54:09.445Z,99507.66
2022-11-05T07:55:13.195Z,99507.31
2022-11-05T07:56:15.998Z,99506.47
2022-11-05T07:57:18.155Z,99506.81
2022-11-05T07:58:20.332Z,99518.63
2022-11-05T07:59:22.539Z,99502.56
2022-11-05T08:00:26.346Z,99519.72
2022-11-05T08:01:28.865Z,99518.47
2022-11-05T08:02:31.750Z,99516.38
2022-11-05T08:03:34.512Z,99521.06
2022-11-05T08:04:36.875Z,99517.13
2022-11-05T08:05:41.964Z,99530.22
2022-11-05T08:06:44.455Z,99527.06
2022-11-05T08:07:46.630Z,99527.84
2022-11-05T08:08:48.899Z,99526.09
2022-11-05T08:09:51.081Z,99521.19
2022-11-05T08:10:53.260Z,99524.78
2022-11-05T08:12:02.496Z,99524.38
2022-11-05T08:13:06.273Z,99532.34
2022-11-05T08:14:08.513Z,99534.59
2022-11-05T08:15:10.691Z,99534.09
2022-11-05T08:16:12.977Z,99534.63
2022-11-05T08:17:18.507Z,99541.88
2022-11-05T08:18:20.823Z,99538.06
2022-11-05T08:19:22.957Z,99542.06
2022-11-05T08:20:26.629Z,99548.16
2022-11-05T08:21:28.812Z,99549.44
2022-11-05T08:22:31.349Z,99543.63
2022-11-05T08:23:33.558Z,99548.75
2022-11-05T08:24:35.774Z,99551.13
2022-11-05T08:25:38.030Z,99545.34
2022-11-05T08:26:40.999Z,99543.59
2022-11-05T08:27:43.250Z,99539.72
2022-11-05T08:28:45.420Z,99549.94
2022-11-05T08:29:47.601Z,99549.06
2022-11-05T08:30:51.454Z,99549.78
2022-11-05T08:31:53.648Z,99553.00
2022-11-05T08:33:00.378Z,99555.63
2022-11-05T08:34:02.904Z,99550.66
2022-11-05T08:35:05.638Z,99546.28
2022-11-05T08:36:07.980Z,99558.75
2022-11-05T08:37:10.326Z,99554.34
2022-11-05T08:38:15.030Z,99554.13
2022-11-05T08:39:18.772Z,99551.41
2022-11-05T08:40:21.031Z,99560.44
2022-11-05T08:41:23.217Z,99558.00
2022-11-05T08:42:25.415Z,99561.47
2022-11-05T08:43:27.587Z,99555.88
2022-11-05T08:44:29.902Z,99564.56
2022-11-05T08:45:32.240Z,99561.06
2022-11-05T08:46:41.410Z,99569.72
2022-11-05T08:47:44.024Z,99569.38
2022-11-05T08:48:46.166Z,99567.66
2022-11-05T08:49:48.467Z,99570.59
2022-11-05T08:50:50.696Z,99571.16
2022-11-05T08:51:52.870Z,99572.88
2022-11-05T08:52:55.239Z,99574.03
2022-11-05T08:53:57.409Z,99571.66
2022-11-05T08:54:59.567Z,99573.06
2022-11-05T08:56:01.854Z,99567.13
2022-11-05T08:57:04.443Z,99581.22
2022-11-05T08:58:12.446Z,99576.22
2022-11-05T08:59:14.664Z,99572.63
2022-11-05T09:00:17.068Z,99579.91
2022-11-05T09:01:19.493Z,99583.31
2022-11-05T09:02:21.804Z,99583.41
2022-11-05T09:03:24.075Z,99586.41
2022-11-05T09:04:26.229Z,99587.34
2022-11-05T09:05:30.034Z,99577.28
2022-11-05T09:06:32.364Z,99575.34
2022-11-05T09:07:34.539Z,99581.34
2022-11-05T09:08:36.696Z,99585.91
2022-11-05T09:09:38.879Z,99590.34
2022-11-05T09:10:42.394Z,99583.66
2022-11-05T09:12:10.611Z,99581.63
2022-11-05T09:13:08.120Z,99582.06
2022-11-05T09:14:12.769Z,99581.91
2022-11-05T09:15:15.006Z,99580.72
2022-11-05T09:16:22.519Z,99591.00
2022-11-05T09:17:24.754Z,99581.91
2022-11-05T09:18:26.981Z,99581.41
2022-11-05T09:19:29.142Z,99587.59
2022-11-05T09:20:32.612Z,99581.03
2022-11-05T09:21:34.739Z,99582.72
2022-11-05T09:22:42.091Z,99580.81
2022-11-05T09:23:46.665Z,99581.38
2022-11-05T09:24:48.830Z,99588.16
2022-11-05T09:25:51.085Z,99592.97
2022-11-05T09:26:53.323Z,99588.28
2022-11-05T09:28:06.372Z,99599.25
2022-11-05T09:29:14.022Z,99603.16
2022-11-05T09:30:16.670Z,99603.06
2022-11-05T09:31:18.839Z,99603.06
2022-11-05T09:32:23.045Z,99599.34
2022-11-05T09:33:26.217Z,99607.66
2022-11-05T09:34:28.408Z,99600.47
2022-11-05T09:35:30.550Z,99608.03
2022-11-05T09:36:32.707Z,99605.47
2022-11-05T09:37:36.159Z,99608.66
2022-11-05T09:38:38.356Z,99607.31
2022-11-05T09:39:40.524Z,99610.22
2022-11-05T09:41:01.942Z,99609.09
2022-11-05T09:42:07.437Z,99607.81
2022-11-05T09:43:16.937Z,99609.22
2022-11-05T09:44:23.741Z,99606.91
2022-11-05T09:45:28.219Z,99615.59
2022-11-05T09:47:10.581Z,99613.38
2022-11-05T09:48:17.574Z,99620.81
2022-11-05T09:49:40.000Z,99616.25
2022-11-05T09:50:46.579Z,99622.22
2022-11-05T09:51:48.953Z,99617.75
2022-11-05T09:52:51.309Z,99619.59
2022-11-05T09:53:53.876Z,99631.56
2022-11-05T09:54:57.276Z,99627.63
2022-11-05T09:56:00.734Z,99628.56
2022-11-05T09:57:06.427Z,99627.78
2022-11-05T09:58:28.376Z,99630.03
2022-11-05T09:59:40.538Z,99639.00
2022-11-05T10:00:43.999Z,99636.25
2022-11-05T10:01:46.934Z,99632.09
2022-11-05T10:02:53.232Z,99649.31
2022-11-05T10:03:58.215Z,99650.00
2022-11-05T10:05:09.753Z,99653.63
2022-11-05T10:06:20.467Z,99641.41
2022-11-05T10:07:26.863Z,99642.66
2022-11-05T10:08:34.416Z,99642.72
2022-11-05T10:09:45.252Z,99646.94
2022-11-05T10:10:47.357Z,99639.81
2022-11-05T10:12:07.402Z,99645.59
2022-11-05T10:13:18.593Z,99649.63
2022-11-05T10:14:28.409Z,99647.31
2022-11-05T10:15:40.226Z,99648.25
2022-11-05T10:16:47.724Z,99647.25
2022-11-05T10:17:57.717Z,99656.22
2022-11-05T10:19:24.557Z,99651.63
2022-11-05T10:20:34.023Z,99655.97
2022-11-05T10:22:04.730Z,99657.56
2022-11-05T10:23:18.164Z,99653.84
2022-11-05T10:24:21.320Z,99654.63
2022-11-05T10:25:27.369Z,99649.91
2022-11-05T10:26:29.872Z,99657.38
2022-11-05T10:27:36.263Z,99664.84
2022-11-05T10:28:39.088Z,99663.41
2022-11-05T10:29:43.360Z,99656.09
2022-11-05T10:30:48.413Z,99664.16
2022-11-05T10:31:53.790Z,99655.28
2022-11-05T10:32:59.335Z,99655.94
2022-11-05T10:34:06.322Z,99660.53
2022-11-05T10:35:14.286Z,99661.72
2022-11-05T10:36:25.917Z,99657.91
2022-11-05T10:37:29.069Z,99666.16
2022-11-05T10:38:31.922Z,99657.19
2022-11-05T10:39:35.112Z,99655.22
2022-11-05T10:41:01.321Z,99657.09
2022-11-05T10:42:41.203Z,99667.38
2022-11-05T10:44:00.556Z,99661.78
2022-11-05T10:45:16.221Z,99663.47
2022-11-05T10:46:27.711Z,99669.34
2022-11-05T10:47:51.766Z,99664.41
2022-11-05T10:49:06.703Z,99665.53
2022-11-05T10:50:16.371Z,99659.78
2022-11-05T10:51:19.356Z,99662.22
2022-11-05T10:52:25.614Z,99667.72
2022-11-05T10:53:31.921Z,99680.25
2022-11-05T10:54:35.465Z,99669.06
2022-11-05T10:55:43.225Z,99670.84
2022-11-05T10:56:45.953Z,99674.34
2022-11-05T10:57:51.861Z,99675.53
2022-11-05T10:58:57.228Z,99678.50
2022-11-05T11:00:21.236Z,99675.75
2022-11-05T11:01:24.800Z,99675.56
2022-11-05T11:02:28.209Z,99683.75
2022-11-05T11:03:51.071Z,99679.66
2022-11-05T11:04:55.088Z,99680.06
2022-11-05T11:06:19.644Z,99676.16
2022-11-05T11:07:24.620Z,99682.66
2022-11-05T11:08:28.379Z,99672.97
2022-11-05T11:09:33.858Z,99676.56
2022-11-05T11:11:02.078Z,99679.44
2022-11-05T11:12:15.381Z,99679.81
2022-11-05T11:13:24.296Z,99672.44
2022-11-05T11:14:26.935Z,99673.25
2022-11-05T11:15:35.137Z,99669.69
2022-11-05T11:16:40.727Z,99674.50
2022-11-05T11:17:42.859Z,99681.78
2022-11-05T11:18:45.115Z,99679.97
2022-11-05T11:19:48.049Z,99684.25
2022-11-05T11:20:50.267Z,99692.78
2022-11-05T11:22:04.274Z,99680.75
2022-11-05T11:23:15.280Z,99672.75
2022-11-05T11:24:23.189Z,99674.56
2022-11-05T11:25:28.455Z,99679.81
2022-11-05T11:26:38.284Z,99679.56
2022-11-05T11:27:40.594Z,99677.56
2022-11-05T11:29:15.570Z,99685.88
2022-11-05T11:30:19.881Z,99675.22
2022-11-05T11:31:25.243Z,99675.38
2022-11-05T11:32:34.071Z,99665.22
2022-11-05T11:33:37.662Z,99672.06
2022-11-05T11:34:41.838Z,99666.78
2022-11-05T11:35:46.530Z,99672.88
2022-11-05T11:36:53.397Z,99676.72
2022-11-05T11:37:58.082Z,99670.13
2022-11-05T11:39:04.254Z,99668.00
2022-11-05T11:40:28.985Z,99672.00
2022-11-05T11:41:33.501Z,99669.22
2022-11-05T11:42:40.785Z,99672.06
2022-11-05T11:43:44.882Z,99676.78
2022-11-05T11:44:48.875Z,99670.34
2022-11-05T11:45:54.172Z,99680.88
2022-11-05T11:47:02.040Z,99678.34
2022-11-05T11:48:06.876Z,99683.25
2022-11-05T11:49:40.394Z,99682.78
2022-11-05T11:50:46.900Z,99677.78
2022-11-05T11:51:50.228Z,99687.94
2022-11-05T11:52:52.519Z,99680.06
2022-11-05T11:53:59.279Z,99683.34
2022-11-05T11:55:17.407Z,99681.59
2022-11-05T11:56:21.573Z,99679.41
2022-11-05T11:57:28.658Z,99678.34
2022-11-05T11:58:51.687Z,99676.22
2022-11-05T12:00:08.830Z,99673.78
2022-11-05T12:01:53.193Z,99678.50
2022-11-05T12:03:04.214Z,99675.13
2022-11-05T12:04:32.019Z,99673.78
2022-11-05T12:06:23.273Z,99668.44
2022-11-05T12:07:29.976Z,99667.91
2022-11-05T12:09:15.127Z,99674.19
2022-11-05T12:10:42.329Z,99673.06
2022-11-05T12:12:05.307Z,99676.75
2022-11-05T12:13:19.479Z,99673.00
2022-11-05T12:14:45.194Z,99678.41
2022-11-05T12:15:51.440Z,99669.41
2022-11-05T12:17:18.122Z,99664.88
2022-11-05T12:18:45.213Z,99674.19
2022-11-05T12:19:59.424Z,99674.06
2022-11-05T12:21:07.111Z,99669.31
2022-11-05T12:22:17.912Z,99677.84
2022-11-05T12:23:39.104Z,99676.81
2022-11-05T12:24:43.977Z,99670.91
2022-11-05T12:26:10.658Z,99675.88
2022-11-05T12:27:34.222Z,99681.25
2022-11-05T12:29:17.272Z,99674.31
2022-11-05T12:30:20.009Z,99685.28
2022-11-05T12:31:40.989Z,99679.81
2022-11-05T12:33:01.206Z,99677.75
2022-11-05T12:34:11.233Z,99681.13
2022-11-05T12:35:23.727Z,99676.31
2022-11-05T12:36:31.729Z,99687.19
2022-11-05T12:37:46.168Z,99686.88
2022-11-05T12:39:14.494Z,99678.66
2022-11-05T12:40:34.722Z,99675.00
2022-11-05T12:41:54.790Z,99677.13
2022-11-05T12:43:44.138Z,99678.94
2022-11-05T12:45:01.536Z,99677.00
2022-11-05T12:46:26.684Z,99674.03
2022-11-05T12:48:13.477Z,99678.63
2022-11-05T12:49:59.511Z,99672.88
2022-11-05T12:51:24.915Z,99671.41
2022-11-05T12:53:12.676Z,99673.78
2022-11-05T12:54:35.826Z,99667.84
2022-11-05T12:55:41.726Z,99667.41
2022-11-05T12:56:54.080Z,99671.78
2022-11-05T12:58:03.826Z,99656.50
2022-11-05T12:59:32.820Z,99669.44
2022-11-05T13:00:37.641Z,99666.47
2022-11-05T13:01:46.129Z,99667.19
2022-11-05T13:02:57.823Z,99667.91
2022-11-05T13:04:08.653Z,99657.78
2022-11-05T13:05:19.223Z,99671.84
2022-11-05T13:06:29.779Z,99670.81
2022-11-05T13:07:39.300Z,99675.47
2022-11-05T13:09:02.139Z,99672.25
2022-11-05T13:10:13.519Z,99676.84
2022-11-05T13:11:28.325Z,99674.56
2022-11-05T13:12:35.242Z,99668.66
2022-11-05T13:13:42.582Z,99672.31
2022-11-05T13:14:50.416Z,99666.69
2022-11-05T13:16:02.384Z,99676.41
2022-11-05T13:17:13.589Z,99669.75
2022-11-05T13:18:23.829Z,99666.19
2022-11-05T13:19:38.002Z,99687.00
2022-11-05T13:20:44.600Z,99685.34
2022-11-05T13:21:53.254Z,99681.31
2022-11-05T13:23:05.580Z,99673.97
2022-11-05T13:24:22.892Z,99683.88